createdAt,value
2023-04-09T00:00:24.109Z,27.10
2023-04-09T00:01:07.432Z,26.95
2023-04-09T00:01:49.539Z,26.67
2023-04-09T00:02:31.626Z,26.30
2023-04-09T00:03:13.628Z,25.70
2023-04-09T00:03:55.591Z,25.70
2023-04-09T00:04:37.481Z,26.75
2023-04-09T00:05:19.507Z,25.90
2023-04-09T00:06:01.442Z,26.35
2023-04-09T00:06:43.215Z,26.67
2023-04-09T00:07:25.026Z,26.73
2023-04-09T00:08:07.411Z,25.30
2023-04-09T00:08:49.399Z,26.27
2023-04-09T00:09:32.051Z,25.55
2023-04-09T00:10:13.926Z,25.23
2023-04-09T00:10:57.363Z,26.65
2023-04-09T00:11:39.240Z,27.90
2023-04-09T00:12:21.151Z,27.52
2023-04-09T00:13:03.224Z,27.50
2023-04-09T00:13:45.067Z,26.73
2023-04-09T00:14:28.968Z,26.55
2023-04-09T00:15:15.048Z,27.17
2023-04-09T00:16:02.702Z,26.30
2023-04-09T00:16:44.785Z,24.95
2023-04-09T00:17:26.700Z,25.35
2023-04-09T00:18:08.605Z,26.35
2023-04-09T00:18:50.892Z,26.60
2023-04-09T00:19:33.298Z,26.45
2023-04-09T00:20:15.121Z,26.77
2023-04-09T00:20:58.949Z,26.80
2023-04-09T00:21:41.086Z,26.10
2023-04-09T00:22:25.401Z,25.90
2023-04-09T00:23:07.243Z,26.38
2023-04-09T00:23:49.235Z,26.42
2023-04-09T00:24:31.312Z,26.45
2023-04-09T00:25:13.247Z,26.80
2023-04-09T00:25:55.250Z,27.02
2023-04-09T00:26:37.105Z,27.58
2023-04-09T00:27:19.260Z,25.42
2023-04-09T00:28:01.202Z,27.23
2023-04-09T00:28:43.303Z,27.05
2023-04-09T00:29:27.253Z,25.80
2023-04-09T00:30:09.855Z,25.15
2023-04-09T00:30:51.815Z,25.17
2023-04-09T00:31:33.860Z,25.95
2023-04-09T00:32:15.744Z,25.77
2023-04-09T00:33:00.320Z,26.83
2023-04-09T00:33:44.424Z,27.70
2023-04-09T00:34:26.354Z,28.70
2023-04-09T00:35:09.339Z,27.55
2023-04-09T00:35:51.508Z,27.65
2023-04-09T00:36:33.364Z,27.02
2023-04-09T00:37:15.552Z,27.40
2023-04-09T00:37:57.379Z,27.17
2023-04-09T00:38:39.407Z,27.90
2023-04-09T00:39:21.337Z,26.80
2023-04-09T00:40:03.502Z,26.55
2023-04-09T00:40:54.406Z,26.02
2023-04-09T00:41:36.324Z,27.10
2023-04-09T00:42:18.327Z,27.17
2023-04-09T00:43:01.266Z,26.70
2023-04-09T00:43:43.272Z,27.35
2023-04-09T00:44:25.833Z,27.02
2023-04-09T00:45:08.290Z,27.92
2023-04-09T00:45:50.474Z,27.05
2023-04-09T00:46:32.642Z,26.80
2023-04-09T00:47:14.729Z,26.50
2023-04-09T00:47:56.786Z,26.17
2023-04-09T00:48:39.396Z,26.38
2023-04-09T00:49:22.388Z,26.52
2023-04-09T00:50:04.439Z,27.05
2023-04-09T00:50:46.401Z,26.33
2023-04-09T00:51:28.744Z,26.33
2023-04-09T00:52:11.266Z,26.38
2023-04-09T00:52:55.466Z,26.10
2023-04-09T00:53:37.386Z,26.33
2023-04-09T00:54:19.551Z,27.23
2023-04-09T00:55:03.927Z,26.52
2023-04-09T00:55:46.308Z,26.17
2023-04-09T00:56:29.935Z,26.27
2023-04-09T00:57:12.414Z,26.35
2023-04-09T00:57:54.449Z,26.17
2023-04-09T00:58:36.858Z,27.00
2023-04-09T00:59:19.930Z,26.25
2023-04-09T01:00:04.732Z,26.15
2023-04-09T01:00:46.847Z,25.58
2023-04-09T01:01:29.105Z,26.05
2023-04-09T01:02:11.256Z,28.40
2023-04-09T01:02:53.972Z,26.58
2023-04-09T01:03:36.589Z,28.23
2023-04-09T01:04:19.432Z,27.35
2023-04-09T01:05:01.436Z,26.27
2023-04-09T01:06:09.513Z,26.02
2023-04-09T01:06:55.959Z,26.30
2023-04-09T01:07:54.957Z,27.70
2023-04-09T01:08:49.148Z,25.52
2023-04-09T01:09:39.298Z,25.65
2023-04-09T01:10:41.877Z,26.92
2023-04-09T01:11:43.690Z,26.50
2023-04-09T01:12:38.579Z,27.52
2023-04-09T01:13:30.820Z,25.50
2023-04-09T01:14:24.279Z,26.38
2023-04-09T01:15:11.369Z,26.02
2023-04-09T01:15:56.875Z,26.58
2023-04-09T01:16:44.713Z,27.27
2023-04-09T01:17:36.120Z,26.33
2023-04-09T01:18:24.627Z,26.48
2023-04-09T01:19:39.520Z,27.58
2023-04-09T01:20:41.431Z,25.58
2023-04-09T01:21:27.541Z,27.40
2023-04-09T01:22:34.831Z,26.98
2023-04-09T01:23:19.778Z,26.70
2023-04-09T01:24:36.205Z,26.38
2023-04-09T01:25:25.745Z,27.75
2023-04-09T01:26:16.922Z,27.00
2023-04-09T01:27:09.020Z,27.02
2023-04-09T01:28:04.740Z,27.90
2023-04-09T01:28:50.719Z,27.77
2023-04-09T01:29:35.686Z,26.90
2023-04-09T01:30:18.866Z,25.63
2023-04-09T01:31:20.732Z,27.38
2023-04-09T01:32:04.917Z,25.50
2023-04-09T01:32:47.160Z,25.83
2023-04-09T01:33:31.682Z,26.20
2023-04-09T01:34:14.987Z,25.83
2023-04-09T01:34:57.179Z,25.35
2023-04-09T01:35:41.572Z,26.60
2023-04-09T01:36:26.526Z,25.65
2023-04-09T01:37:09.650Z,26.10
2023-04-09T01:37:53.218Z,28.13
2023-04-09T01:38:41.295Z,26.70
2023-04-09T01:39:23.682Z,25.67
2023-04-09T01:40:07.062Z,26.33
2023-04-09T01:40:50.083Z,27.23
2023-04-09T01:41:34.433Z,27.50
2023-04-09T01:42:17.781Z,26.05
2023-04-09T01:43:01.355Z,26.63
2023-04-09T01:43:43.922Z,25.73
2023-04-09T01:44:27.635Z,26.75
2023-04-09T01:45:11.779Z,24.98
2023-04-09T01:45:55.152Z,25.50
2023-04-09T01:46:39.727Z,26.42
2023-04-09T01:47:24.453Z,26.13
2023-04-09T01:48:06.678Z,24.55
2023-04-09T01:48:49.899Z,24.10
2023-04-09T01:49:32.669Z,24.80
2023-04-09T01:50:14.982Z,25.55
2023-04-09T01:50:58.060Z,25.83
2023-04-09T01:51:40.251Z,26.40
2023-04-09T01:52:22.227Z,26.10
2023-04-09T01:53:04.301Z,26.20
2023-04-09T01:53:46.554Z,25.58
2023-04-09T01:54:30.673Z,25.63
2023-04-09T01:55:14.784Z,25.58
2023-04-09T01:55:56.841Z,24.35
2023-04-09T01:56:47.177Z,26.15
2023-04-09T01:57:29.140Z,26.70
2023-04-09T01:58:11.668Z,25.92
2023-04-09T01:58:53.924Z,26.13
2023-04-09T01:59:35.966Z,25.85
2023-04-09T02:00:17.800Z,24.73
2023-04-09T02:01:12.160Z,25.35
2023-04-09T02:02:01.428Z,25.35
2023-04-09T02:03:22.843Z,24.40
2023-04-09T02:04:16.617Z,24.65
2023-04-09T02:05:01.855Z,25.17
2023-04-09T02:05:54.506Z,25.38
2023-04-09T02:06:59.650Z,25.02
2023-04-09T02:07:46.816Z,25.30
2023-04-09T02:08:28.913Z,25.45
2023-04-09T02:09:12.319Z,25.30
2023-04-09T02:09:55.619Z,24.55
2023-04-09T02:10:39.611Z,25.50
2023-04-09T02:11:25.667Z,26.02
2023-04-09T02:12:12.598Z,25.20
2023-04-09T02:12:55.626Z,24.77
2023-04-09T02:13:40.675Z,24.77
2023-04-09T02:14:23.951Z,25.77
2023-04-09T02:15:07.625Z,25.23
2023-04-09T02:15:50.933Z,24.25
2023-04-09T02:16:34.073Z,24.70
2023-04-09T02:17:15.903Z,24.30
2023-04-09T02:17:57.846Z,24.17
2023-04-09T02:18:39.803Z,25.05
2023-04-09T02:19:23.911Z,24.00
2023-04-09T02:20:09.117Z,24.38
2023-04-09T02:20:52.096Z,24.35
2023-04-09T02:21:34.310Z,24.70
2023-04-09T02:22:17.190Z,24.23
2023-04-09T02:22:59.231Z,22.98
2023-04-09T02:23:41.448Z,24.30
2023-04-09T02:24:23.298Z,25.15
2023-04-09T02:25:05.948Z,23.50
2023-04-09T02:25:50.610Z,24.48
2023-04-09T02:26:32.409Z,23.90
2023-04-09T02:27:14.413Z,24.55
2023-04-09T02:27:56.322Z,25.45
2023-04-09T02:28:38.381Z,23.73
2023-04-09T02:29:20.282Z,24.38
2023-04-09T02:30:02.249Z,23.98
2023-04-09T02:30:44.284Z,23.97
2023-04-09T02:31:26.395Z,23.92
2023-04-09T02:32:08.836Z,24.15
2023-04-09T02:32:50.905Z,22.10
2023-04-09T02:33:32.902Z,24.05
2023-04-09T02:34:14.744Z,24.45
2023-04-09T02:34:56.540Z,24.15
2023-04-09T02:35:38.419Z,25.05
2023-04-09T02:36:20.231Z,24.33
2023-04-09T02:37:02.018Z,24.48
2023-04-09T02:37:43.893Z,23.70
2023-04-09T02:38:25.955Z,22.38
2023-04-09T02:39:07.839Z,23.95
2023-04-09T02:39:49.596Z,24.08
2023-04-09T02:40:31.401Z,25.20
2023-04-09T02:41:13.383Z,27.42
2023-04-09T02:41:56.227Z,25.52
2023-04-09T02:42:38.428Z,24.77
2023-04-09T02:43:20.389Z,23.63
2023-04-09T02:44:02.119Z,23.33
2023-04-09T02:44:44.440Z,24.08
2023-04-09T02:45:26.390Z,24.85
2023-04-09T02:46:08.918Z,24.15
2023-04-09T02:46:52.178Z,24.77
2023-04-09T02:47:34.058Z,24.00
2023-04-09T02:48:15.937Z,24.55
2023-04-09T02:48:57.890Z,24.65
2023-04-09T02:49:39.836Z,25.13
2023-04-09T02:50:23.775Z,25.40
2023-04-09T02:51:06.829Z,24.23
2023-04-09T02:51:49.015Z,24.98
2023-04-09T02:52:30.868Z,25.95
2023-04-09T02:53:14.983Z,25.17
2023-04-09T02:53:59.076Z,25.13
2023-04-09T02:54:40.987Z,25.60
2023-04-09T02:55:23.006Z,25.42
2023-04-09T02:56:05.023Z,25.10
2023-04-09T02:56:46.877Z,24.33
2023-04-09T02:57:29.206Z,24.90
2023-04-09T02:58:11.430Z,24.08
2023-04-09T02:58:54.375Z,24.05
2023-04-09T02:59:38.872Z,24.35
2023-04-09T03:00:20.902Z,24.52
2023-04-09T03:01:02.828Z,24.35
2023-04-09T03:01:44.679Z,24.17
2023-04-09T03:02:29.228Z,24.10
2023-04-09T03:03:11.574Z,23.88
2023-04-09T03:03:56.288Z,24.15
2023-04-09T03:04:38.987Z,24.20
2023-04-09T03:05:21.165Z,23.38
2023-04-09T03:06:03.357Z,24.02
2023-04-09T03:06:45.241Z,24.35
2023-04-09T03:07:27.065Z,24.30
2023-04-09T03:08:08.993Z,25.77
2023-04-09T03:08:51.230Z,24.48
2023-04-09T03:09:33.891Z,24.50
2023-04-09T03:10:15.857Z,24.33
2023-04-09T03:10:59.946Z,23.52
2023-04-09T03:11:44.044Z,24.08
2023-04-09T03:12:25.888Z,23.02
2023-04-09T03:13:08.461Z,24.52
2023-04-09T03:13:50.403Z,24.33
2023-04-09T03:14:33.749Z,24.25
2023-04-09T03:15:17.038Z,23.40
2023-04-09T03:15:58.945Z,23.50
2023-04-09T03:16:41.353Z,23.63
2023-04-09T03:17:25.849Z,24.05
2023-04-09T03:18:10.108Z,23.10
2023-04-09T03:18:52.046Z,24.40
2023-04-09T03:19:34.027Z,23.90
2023-04-09T03:20:16.034Z,23.95
2023-04-09T03:20:57.988Z,23.48
2023-04-09T03:21:39.875Z,23.10
2023-04-09T03:22:23.989Z,22.58
2023-04-09T03:23:06.057Z,23.30
2023-04-09T03:23:48.064Z,24.77
2023-04-09T03:24:31.504Z,23.75
2023-04-09T03:25:13.507Z,24.00
2023-04-09T03:26:05.922Z,24.20
2023-04-09T03:26:50.057Z,23.17
2023-04-09T03:27:33.192Z,23.05
2023-04-09T03:28:14.981Z,23.55
2023-04-09T03:28:59.320Z,24.77
2023-04-09T03:29:41.094Z,23.77
2023-04-09T03:30:23.055Z,24.48
2023-04-09T03:31:06.981Z,25.17
2023-04-09T03:31:49.170Z,25.00
2023-04-09T03:32:31.250Z,23.88
2023-04-09T03:33:13.087Z,23.35
2023-04-09T03:33:54.979Z,22.70
2023-04-09T03:34:38.995Z,24.30
2023-04-09T03:35:21.084Z,23.40
2023-04-09T03:36:02.965Z,23.35
2023-04-09T03:36:44.989Z,23.83
2023-04-09T03:37:29.091Z,25.05
2023-04-09T03:38:11.297Z,24.02
2023-04-09T03:38:53.478Z,24.02
2023-04-09T03:39:35.557Z,22.92
2023-04-09T03:40:17.488Z,23.38
2023-04-09T03:40:59.260Z,22.65
2023-04-09T03:41:41.156Z,23.23
2023-04-09T03:42:23.591Z,24.08
2023-04-09T03:43:05.712Z,24.73
2023-04-09T03:43:47.501Z,24.40
2023-04-09T03:44:29.607Z,22.98
2023-04-09T03:45:11.522Z,23.67
2023-04-09T03:45:53.354Z,24.30
2023-04-09T03:46:35.170Z,23.60
2023-04-09T03:47:19.437Z,22.65
2023-04-09T03:48:01.346Z,22.50
2023-04-09T03:48:44.656Z,23.15
2023-04-09T03:49:26.664Z,23.27
2023-04-09T03:50:09.240Z,23.38
2023-04-09T03:50:53.565Z,23.17
2023-04-09T03:51:35.346Z,23.33
2023-04-09T03:52:17.184Z,22.70
2023-04-09T03:52:59.215Z,23.40
2023-04-09T03:53:44.238Z,23.20
2023-04-09T03:54:29.888Z,23.30
2023-04-09T03:55:11.733Z,23.05
2023-04-09T03:55:53.704Z,24.20
2023-04-09T03:56:35.650Z,23.80
2023-04-09T03:57:17.432Z,23.33
2023-04-09T03:57:59.401Z,22.50
2023-04-09T03:58:41.234Z,23.52
2023-04-09T03:59:23.785Z,23.00
2023-04-09T04:00:06.491Z,23.83
2023-04-09T04:00:48.878Z,22.42
2023-04-09T04:01:30.691Z,23.33
2023-04-09T04:02:12.607Z,23.90
2023-04-09T04:02:54.986Z,23.27
2023-04-09T04:03:37.161Z,23.83
2023-04-09T04:04:21.227Z,23.30
2023-04-09T04:05:05.668Z,23.25
2023-04-09T04:05:47.479Z,24.20
2023-04-09T04:06:29.327Z,24.02
2023-04-09T04:07:11.098Z,23.02
2023-04-09T04:07:53.280Z,23.02
2023-04-09T04:08:35.161Z,22.60
2023-04-09T04:09:19.223Z,22.80
2023-04-09T04:10:01.393Z,24.05
2023-04-09T04:10:43.709Z,24.35
2023-04-09T04:11:25.587Z,24.10
2023-04-09T04:12:07.418Z,22.52
2023-04-09T04:12:49.363Z,22.50
2023-04-09T04:13:31.325Z,23.00
2023-04-09T04:14:15.192Z,23.30
2023-04-09T04:14:59.540Z,22.95
2023-04-09T04:15:44.908Z,23.88
2023-04-09T04:16:26.894Z,24.25
2023-04-09T04:17:09.220Z,24.03
2023-04-09T04:17:51.064Z,22.90
2023-04-09T04:18:35.565Z,22.55
2023-04-09T04:19:17.497Z,24.33
2023-04-09T04:19:59.289Z,23.40
2023-04-09T04:20:41.439Z,22.65
2023-04-09T04:21:23.373Z,24.08
2023-04-09T04:22:05.233Z,23.63
2023-04-09T04:22:47.042Z,23.60
2023-04-09T04:23:28.980Z,24.38
2023-04-09T04:24:11.273Z,23.15
2023-04-09T04:24:53.390Z,22.35
2023-04-09T04:25:37.537Z,23.38
2023-04-09T04:26:19.379Z,22.40
2023-04-09T04:27:01.230Z,23.20
2023-04-09T04:27:43.422Z,21.92
2023-04-09T04:28:25.408Z,22.30
2023-04-09T04:29:07.280Z,22.00
2023-04-09T04:29:51.134Z,22.83
2023-04-09T04:30:32.932Z,23.25
2023-04-09T04:31:15.104Z,23.73
2023-04-09T04:31:56.942Z,22.08
2023-04-09T04:32:38.943Z,22.83
2023-04-09T04:33:20.878Z,22.58
2023-04-09T04:34:02.689Z,22.35
2023-04-09T04:34:48.349Z,22.25
2023-04-09T04:35:32.620Z,23.98
2023-04-09T04:36:17.205Z,22.80
2023-04-09T04:37:01.326Z,23.48
2023-04-09T04:37:45.485Z,22.75
2023-04-09T04:38:27.300Z,22.25
2023-04-09T04:39:11.455Z,22.58
2023-04-09T04:39:53.454Z,23.98
2023-04-09T04:40:35.430Z,22.53
2023-04-09T04:41:19.528Z,21.27
2023-04-09T04:42:01.399Z,22.00
2023-04-09T04:42:43.521Z,22.63
2023-04-09T04:43:25.449Z,23.95
2023-04-09T04:44:09.561Z,23.10
2023-04-09T04:44:51.408Z,21.67
2023-04-09T04:45:33.451Z,22.33
2023-04-09T04:46:15.432Z,23.27
2023-04-09T04:46:57.414Z,22.70
2023-04-09T04:47:39.270Z,23.02
2023-04-09T04:48:21.769Z,23.42
2023-04-09T04:49:03.804Z,22.88
2023-04-09T04:49:45.690Z,22.10
2023-04-09T04:50:27.480Z,21.63
2023-04-09T04:51:09.439Z,22.83
2023-04-09T04:51:51.477Z,22.60
2023-04-09T04:52:33.421Z,22.17
2023-04-09T04:53:15.334Z,20.98
2023-04-09T04:53:57.167Z,21.50
2023-04-09T04:54:39.008Z,22.95
2023-04-09T04:55:20.823Z,23.00
2023-04-09T04:56:02.599Z,23.05
2023-04-09T04:56:44.569Z,23.17
2023-04-09T04:57:26.379Z,23.23
2023-04-09T04:58:10.305Z,23.60
2023-04-09T04:58:52.281Z,23.67
2023-04-09T04:59:36.857Z,22.73
2023-04-09T05:00:18.958Z,22.83
2023-04-09T05:01:00.988Z,21.88
2023-04-09T05:01:42.963Z,23.15
2023-04-09T05:02:27.946Z,22.40
2023-04-09T05:03:10.270Z,22.13
2023-04-09T05:03:52.308Z,22.30
2023-04-09T05:04:34.562Z,22.55
2023-04-09T05:05:16.627Z,22.60
2023-04-09T05:05:58.600Z,23.13
2023-04-09T05:06:40.412Z,23.65
2023-04-09T05:07:24.282Z,22.23
2023-04-09T05:08:06.921Z,22.02
2023-04-09T05:08:48.769Z,22.10
2023-04-09T05:09:30.709Z,22.80
2023-04-09T05:10:12.527Z,23.77
2023-04-09T05:10:56.293Z,23.38
2023-04-09T05:11:40.992Z,22.85
2023-04-09T05:12:22.828Z,22.63
2023-04-09T05:13:04.627Z,23.77
2023-04-09T05:13:46.515Z,23.80
2023-04-09T05:14:28.653Z,22.83
2023-04-09T05:15:10.556Z,22.45
2023-04-09T05:15:54.732Z,22.65
2023-04-09T05:16:36.779Z,22.83
2023-04-09T05:17:18.708Z,22.60
2023-04-09T05:18:00.670Z,23.02
2023-04-09T05:18:42.489Z,23.73
2023-04-09T05:19:24.578Z,21.92
2023-04-09T05:20:07.132Z,22.60
2023-04-09T05:20:49.077Z,21.60
2023-04-09T05:21:31.924Z,22.45
2023-04-09T05:22:13.956Z,22.92
2023-04-09T05:22:55.840Z,23.90
2023-04-09T05:23:37.825Z,23.95
2023-04-09T05:24:19.650Z,23.02
2023-04-09T05:25:01.644Z,22.85
2023-04-09T05:25:43.702Z,22.33
2023-04-09T05:26:25.463Z,22.20
2023-04-09T05:27:09.539Z,21.50
2023-04-09T05:27:51.566Z,23.00
2023-04-09T05:28:33.575Z,23.60
2023-04-09T05:29:17.294Z,22.38
2023-04-09T05:30:00.742Z,22.05
2023-04-09T05:30:49.655Z,23.05
2023-04-09T05:31:31.765Z,22.15
2023-04-09T05:32:13.580Z,22.05
2023-04-09T05:32:55.541Z,22.50
2023-04-09T05:33:38.609Z,21.00
2023-04-09T05:34:20.620Z,22.90
2023-04-09T05:35:04.752Z,23.02
2023-04-09T05:35:46.722Z,21.85
2023-04-09T05:36:28.652Z,21.98
2023-04-09T05:37:10.824Z,22.02
2023-04-09T05:37:52.701Z,22.05
2023-04-09T05:38:35.011Z,21.98
2023-04-09T05:39:17.080Z,21.77
2023-04-09T05:39:59.142Z,21.45
2023-04-09T05:40:42.352Z,21.40
2023-04-09T05:41:24.197Z,21.80
2023-04-09T05:42:06.159Z,21.13
2023-04-09T05:42:48.153Z,21.73
2023-04-09T05:43:29.997Z,21.88
2023-04-09T05:44:12.234Z,22.33
2023-04-09T05:44:54.341Z,21.50
2023-04-09T05:45:36.130Z,21.58
2023-04-09T05:46:18.188Z,21.77
2023-04-09T05:47:00.171Z,22.83
2023-04-09T05:47:42.227Z,20.70
2023-04-09T05:48:24.287Z,20.85
2023-04-09T05:49:06.288Z,21.10
2023-04-09T05:49:48.426Z,20.45
2023-04-09T05:50:30.410Z,21.55
2023-04-09T05:51:12.796Z,21.30
2023-04-09T05:51:54.680Z,21.95
2023-04-09T05:52:36.791Z,21.10
2023-04-09T05:53:19.833Z,20.35
2023-04-09T05:54:02.822Z,21.33
2023-04-09T05:54:44.661Z,21.35
2023-04-09T05:55:28.824Z,20.67
2023-04-09T05:56:17.429Z,20.65
2023-04-09T05:56:59.338Z,19.48
2023-04-09T05:57:41.808Z,19.50
2023-04-09T05:58:24.106Z,21.15
2023-04-09T05:59:05.883Z,20.63
2023-04-09T05:59:47.849Z,20.23
2023-04-09T06:00:29.791Z,21.33
2023-04-09T06:01:11.892Z,20.10
2023-04-09T06:01:53.910Z,20.13
2023-04-09T06:02:35.845Z,19.55
2023-04-09T06:03:18.019Z,19.48
2023-04-09T06:04:00.259Z,21.02
2023-04-09T06:04:42.434Z,19.67
2023-04-09T06:05:24.412Z,19.33
2023-04-09T06:06:09.136Z,19.30
2023-04-09T06:06:54.431Z,19.65
2023-04-09T06:07:36.206Z,18.88
2023-04-09T06:08:18.030Z,19.98
2023-04-09T06:08:59.852Z,19.25
2023-04-09T06:09:44.120Z,18.75
2023-04-09T06:10:25.898Z,18.90
2023-04-09T06:11:13.189Z,19.10
2023-04-09T06:11:54.951Z,20.13
2023-04-09T06:12:36.928Z,19.77
2023-04-09T06:13:18.996Z,19.35
2023-04-09T06:14:00.833Z,18.55
2023-04-09T06:14:42.962Z,19.27
2023-04-09T06:15:24.767Z,19.00
2023-04-09T06:16:10.453Z,19.45
2023-04-09T06:16:52.401Z,19.80
2023-04-09T06:17:34.350Z,18.27
2023-04-09T06:18:16.281Z,18.15
2023-04-09T06:18:58.326Z,18.08
2023-04-09T06:19:40.369Z,19.17
2023-04-09T06:20:22.370Z,18.63
2023-04-09T06:21:06.059Z,18.63
2023-04-09T06:21:47.972Z,18.50
2023-04-09T06:22:29.787Z,18.85
2023-04-09T06:23:14.294Z,17.67
2023-04-09T06:23:56.109Z,17.40
2023-04-09T06:24:38.070Z,17.73
2023-04-09T06:25:20.069Z,17.52
2023-04-09T06:26:02.464Z,18.52
2023-04-09T06:26:44.450Z,19.00
2023-04-09T06:27:29.346Z,18.42
2023-04-09T06:28:11.513Z,18.08
2023-04-09T06:28:54.059Z,17.60
2023-04-09T06:29:37.986Z,17.67
2023-04-09T06:30:19.978Z,17.08
2023-04-09T06:31:04.274Z,17.15
2023-04-09T06:31:46.562Z,17.48
2023-04-09T06:32:28.574Z,18.20
2023-04-09T06:33:10.656Z,18.40
2023-04-09T06:33:52.906Z,17.95
2023-04-09T06:34:34.894Z,18.02
2023-04-09T06:35:19.106Z,17.60
2023-04-09T06:36:01.431Z,17.40
2023-04-09T06:36:44.549Z,17.50
2023-04-09T06:37:26.327Z,17.55
2023-04-09T06:38:10.112Z,18.05
2023-04-09T06:38:52.018Z,18.45
2023-04-09T06:39:33.895Z,17.80
2023-04-09T06:40:15.731Z,17.45
2023-04-09T06:41:00.564Z,15.90
2023-04-09T06:41:42.507Z,17.80
2023-04-09T06:42:24.517Z,17.23
2023-04-09T06:43:06.979Z,16.70
2023-04-09T06:43:49.174Z,18.00
2023-04-09T06:44:34.355Z,17.92
2023-04-09T06:45:16.213Z,17.58
2023-04-09T06:45:58.387Z,17.25
2023-04-09T06:46:40.627Z,17.38
2023-04-09T06:47:22.593Z,17.23
2023-04-09T06:48:05.023Z,16.85
2023-04-09T06:48:47.172Z,15.98
2023-04-09T06:49:28.966Z,15.82
2023-04-09T06:50:10.783Z,14.45
2023-04-09T06:50:52.648Z,15.38
2023-04-09T06:51:34.654Z,16.00
2023-04-09T06:52:16.713Z,15.35
2023-04-09T06:52:58.630Z,15.45
2023-04-09T06:53:40.656Z,15.52
2023-04-09T06:54:22.643Z,15.35
2023-04-09T06:55:05.055Z,16.38
2023-04-09T06:55:47.063Z,15.35
2023-04-09T06:56:29.080Z,14.75
2023-04-09T06:57:10.878Z,14.90
2023-04-09T06:57:52.697Z,14.57
2023-04-09T06:58:34.735Z,14.60
2023-04-09T06:59:18.931Z,14.32
2023-04-09T07:00:00.693Z,14.40
2023-04-09T07:00:42.678Z,13.45
2023-04-09T07:01:26.457Z,13.38
2023-04-09T07:02:09.209Z,12.85
2023-04-09T07:02:51.797Z,12.30
2023-04-09T07:03:33.975Z,13.38
2023-04-09T07:04:18.121Z,13.40
2023-04-09T07:04:59.964Z,12.98
2023-04-09T07:05:44.423Z,12.32
2023-04-09T07:06:26.445Z,12.07
2023-04-09T07:07:08.223Z,12.48
2023-04-09T07:07:50.057Z,12.82
2023-04-09T07:08:32.153Z,13.20
2023-04-09T07:09:14.222Z,12.40
2023-04-09T07:09:56.365Z,12.98
2023-04-09T07:10:38.343Z,12.02
2023-04-09T07:11:20.449Z,12.38
2023-04-09T07:12:02.223Z,11.73
2023-04-09T07:12:44.309Z,12.25
2023-04-09T07:13:26.181Z,11.85
2023-04-09T07:14:10.289Z,12.20
2023-04-09T07:14:52.231Z,11.85
2023-04-09T07:15:34.326Z,12.75
2023-04-09T07:16:16.205Z,12.05
2023-04-09T07:16:58.301Z,12.25
2023-04-09T07:17:40.306Z,12.20
2023-04-09T07:18:24.633Z,11.70
2023-04-09T07:19:07.555Z,12.15
2023-04-09T07:19:49.393Z,11.75
2023-04-09T07:20:31.214Z,11.50
2023-04-09T07:21:15.078Z,10.98
2023-04-09T07:21:56.888Z,11.70
2023-04-09T07:22:39.736Z,12.20
2023-04-09T07:23:22.478Z,11.93
2023-04-09T07:24:04.359Z,11.77
2023-04-09T07:24:47.227Z,11.65
2023-04-09T07:25:29.152Z,11.15
2023-04-09T07:26:11.405Z,11.50
2023-04-09T07:26:53.405Z,11.25
2023-04-09T07:27:35.903Z,11.32
2023-04-09T07:28:17.998Z,11.95
2023-04-09T07:29:00.015Z,11.57
2023-04-09T07:29:44.699Z,10.63
2023-04-09T07:30:26.619Z,11.30
2023-04-09T07:31:09.761Z,11.20
2023-04-09T07:31:51.627Z,11.40
2023-04-09T07:32:33.517Z,11.70
2023-04-09T07:33:15.422Z,11.85
2023-04-09T07:33:57.395Z,11.18
2023-04-09T07:34:39.416Z,11.37
2023-04-09T07:35:21.819Z,11.18
2023-04-09T07:36:03.968Z,11.85
2023-04-09T07:36:45.766Z,11.63
2023-04-09T07:37:27.834Z,10.95
2023-04-09T07:38:09.822Z,11.35
2023-04-09T07:38:51.819Z,11.40
2023-04-09T07:39:33.918Z,11.73
2023-04-09T07:40:18.693Z,11.40
2023-04-09T07:41:01.295Z,11.20
2023-04-09T07:41:43.378Z,11.15
2023-04-09T07:42:25.783Z,11.40
2023-04-09T07:43:07.641Z,10.27
2023-04-09T07:43:49.424Z,10.90
2023-04-09T07:44:36.399Z,11.27
2023-04-09T07:45:18.473Z,10.65
2023-04-09T07:46:00.487Z,10.02
2023-04-09T07:46:44.071Z,9.75
2023-04-09T07:47:26.979Z,10.00
2023-04-09T07:48:09.387Z,10.45
2023-04-09T07:48:53.752Z,10.50
2023-04-09T07:49:38.719Z,11.40
2023-04-09T07:50:20.557Z,10.57
2023-04-09T07:51:02.511Z,9.48
2023-04-09T07:51:44.323Z,9.52
2023-04-09T07:52:26.160Z,10.25
2023-04-09T07:53:08.052Z,10.50
2023-04-09T07:53:50.297Z,9.60
2023-04-09T07:54:34.789Z,10.82
2023-04-09T07:55:17.437Z,10.70
2023-04-09T07:56:00.369Z,9.45
2023-04-09T07:56:42.211Z,10.15
2023-04-09T07:57:24.197Z,10.00
2023-04-09T07:58:06.457Z,10.20
2023-04-09T07:58:49.323Z,10.68
2023-04-09T07:59:31.812Z,9.52
2023-04-09T08:00:16.633Z,9.13
2023-04-09T08:00:58.661Z,10.30
2023-04-09T08:01:40.727Z,10.35
2023-04-09T08:02:24.016Z,9.60
2023-04-09T08:03:06.478Z,9.13
2023-04-09T08:03:49.219Z,9.27
2023-04-09T08:04:32.637Z,10.32
2023-04-09T08:05:14.734Z,10.20
2023-04-09T08:05:56.546Z,10.40
2023-04-09T08:06:38.638Z,10.02
2023-04-09T08:07:20.743Z,8.95
2023-04-09T08:08:02.642Z,9.20
2023-04-09T08:08:44.779Z,9.80
2023-04-09T08:09:26.581Z,9.50
2023-04-09T08:10:13.950Z,10.20
2023-04-09T08:10:55.781Z,9.82
2023-04-09T08:11:37.616Z,9.90
2023-04-09T08:12:19.537Z,9.60
2023-04-09T08:13:03.647Z,9.60
2023-04-09T08:13:45.532Z,9.95
2023-04-09T08:14:29.421Z,10.00
2023-04-09T08:15:11.926Z,9.40
2023-04-09T08:15:53.725Z,8.45
2023-04-09T08:16:35.521Z,8.32
2023-04-09T08:17:19.652Z,9.00
2023-04-09T08:18:05.695Z,9.15
2023-04-09T08:18:47.949Z,9.77
2023-04-09T08:19:29.768Z,10.35
2023-04-09T08:20:12.788Z,9.40
2023-04-09T08:20:54.737Z,9.02
2023-04-09T08:21:43.164Z,9.55
2023-04-09T08:22:25.262Z,9.40
2023-04-09T08:23:07.020Z,9.70
2023-04-09T08:23:48.858Z,9.10
2023-04-09T08:24:31.280Z,8.65
2023-04-09T08:25:13.194Z,8.75
2023-04-09T08:25:55.016Z,8.80
2023-04-09T08:26:37.093Z,8.48
2023-04-09T08:27:19.720Z,9.30
2023-04-09T08:28:03.912Z,8.75
2023-04-09T08:28:45.807Z,9.45
2023-04-09T08:29:27.870Z,9.10
2023-04-09T08:30:10.385Z,8.13
2023-04-09T08:30:52.679Z,8.23
2023-04-09T08:31:35.005Z,9.25
2023-04-09T08:32:16.961Z,8.70
2023-04-09T08:32:58.804Z,9.50
2023-04-09T08:33:41.180Z,8.95
2023-04-09T08:34:23.255Z,8.60
2023-04-09T08:35:06.301Z,8.40
2023-04-09T08:35:48.392Z,8.98
2023-04-09T08:36:30.248Z,8.85
2023-04-09T08:37:12.093Z,8.70
2023-04-09T08:37:54.908Z,8.63
2023-04-09T08:38:37.040Z,7.90
2023-04-09T08:39:20.162Z,7.70
2023-04-09T08:40:02.151Z,7.40
2023-04-09T08:40:44.204Z,7.97
2023-04-09T08:41:29.226Z,8.20
2023-04-09T08:42:12.744Z,8.32
2023-04-09T08:42:58.711Z,8.68
2023-04-09T08:43:53.105Z,8.20
2023-04-09T08:44:39.227Z,7.80
2023-04-09T08:45:21.195Z,8.20
2023-04-09T08:46:03.420Z,8.50
2023-04-09T08:46:45.387Z,8.27
2023-04-09T08:47:27.921Z,8.15
2023-04-09T08:48:13.022Z,7.50
2023-04-09T08:48:55.144Z,8.70
2023-04-09T08:49:39.657Z,8.65
2023-04-09T08:50:22.680Z,8.20
2023-04-09T08:51:05.714Z,7.72
2023-04-09T08:51:49.142Z,7.40
2023-04-09T08:52:34.913Z,7.20
2023-04-09T08:53:18.971Z,6.40
2023-04-09T08:54:04.380Z,7.70
2023-04-09T08:54:46.863Z,6.90
2023-04-09T08:55:28.822Z,7.00
2023-04-09T08:56:10.882Z,7.93
2023-04-09T08:56:52.748Z,8.23
2023-04-09T08:57:38.951Z,7.30
2023-04-09T08:58:20.792Z,6.80
2023-04-09T08:59:02.730Z,7.30
2023-04-09T08:59:44.536Z,7.75
2023-04-09T09:00:27.191Z,8.05
2023-04-09T09:01:18.936Z,7.30
2023-04-09T09:02:10.741Z,7.45
2023-04-09T09:03:04.326Z,7.35
2023-04-09T09:03:56.834Z,7.35
2023-04-09T09:04:49.404Z,7.60
2023-04-09T09:05:51.564Z,7.05
2023-04-09T09:06:36.144Z,6.22
2023-04-09T09:07:18.048Z,6.50
2023-04-09T09:08:03.711Z,6.70
2023-04-09T09:08:48.796Z,7.30
2023-04-09T09:09:30.973Z,7.07
2023-04-09T09:10:12.956Z,6.50
2023-04-09T09:10:54.751Z,6.60
2023-04-09T09:11:38.736Z,6.68
2023-04-09T09:12:34.283Z,6.90
2023-04-09T09:13:26.429Z,6.40
2023-04-09T09:14:10.272Z,6.32
2023-04-09T09:14:52.281Z,6.40
2023-04-09T09:15:34.058Z,6.30
2023-04-09T09:16:16.514Z,6.40
2023-04-09T09:16:58.671Z,6.65
2023-04-09T09:17:54.959Z,7.00
2023-04-09T09:18:44.099Z,7.05
2023-04-09T09:19:26.116Z,6.40
2023-04-09T09:20:20.865Z,6.55
2023-04-09T09:21:20.326Z,7.03
2023-04-09T09:22:04.899Z,7.40